RJCW/WKJ METAR and TAF weather

Enter ICAO airport designator
Station Type Date Time Source
RJCW METAR 2019/06/19 06:00 UTC NOAA

RJCW 190600Z 19017KT 9999 FEW025 SCT070 BKN120 20/12 Q1006


Station Type Date Time Source
RJCW Decoded METAR 2019/06/19 06:00 UTC NOAA

Wakkanai Airport, Japan (RJCW) 45-24N 141-48E 11M
Jun 19, 2019 - 02:00 AM EDT / 2019.06.19 0600 UTC
Wind: from the S (190 degrees) at 20 MPH (17 KT):0
Visibility: greater than 7 mile(s):0
Sky conditions: mostly cloudy
Temperature: 68 F (20 C)
Dew Point: 53 F (12 C)
Relative Humidity: 59%
Pressure (altimeter): 29.71 in. Hg (1006 hPa)
ob: RJCW 190600Z 19017KT 9999 FEW025 SCT070 BKN120 20/12 Q1006
cycle: 6

Station Type Date Time Source
RJCW TAF UTC NOAA

Error!

Example: see airport list